createdAt,value
2022-08-07T00:00:35.893Z,15.01
2022-08-07T00:03:47.384Z,14.82
2022-08-07T00:06:52.280Z,14.79
2022-08-07T00:10:19.172Z,14.72
2022-08-07T00:13:24.038Z,14.60
2022-08-07T00:16:28.308Z,14.46
2022-08-07T00:20:02.529Z,14.45
2022-08-07T00:22:56.574Z,14.35
2022-08-07T00:26:13.158Z,14.37
2022-08-07T00:29:31.344Z,14.28
2022-08-07T00:32:34.960Z,14.15
2022-08-07T00:35:37.445Z,14.04
2022-08-07T00:38:40.322Z,14.10
2022-08-07T00:41:53.159Z,13.90
2022-08-07T00:44:56.440Z,13.81
2022-08-07T00:48:10.351Z,13.56
2022-08-07T00:51:13.845Z,13.64
2022-08-07T00:54:16.167Z,13.51
2022-08-07T00:57:25.747Z,13.48
2022-08-07T01:00:29.050Z,13.43
2022-08-07T01:03:57.392Z,13.46
2022-08-07T01:06:57.465Z,13.18
2022-08-07T01:10:06.196Z,13.10
2022-08-07T01:13:12.733Z,13.12
2022-08-07T01:16:30.511Z,12.81
2022-08-07T01:19:35.149Z,12.79
2022-08-07T01:22:53.993Z,12.62
2022-08-07T01:26:04.407Z,12.56
2022-08-07T01:29:06.983Z,12.54
2022-08-07T01:32:12.490Z,12.40
2022-08-07T01:35:19.894Z,12.53
2022-08-07T01:38:29.732Z,12.55
2022-08-07T01:41:40.890Z,12.42
2022-08-07T01:45:16.092Z,12.15
2022-08-07T01:48:30.171Z,12.08
2022-08-07T01:52:03.755Z,12.14
2022-08-07T01:55:00.731Z,12.01
2022-08-07T01:58:27.166Z,12.07
2022-08-07T02:01:59.897Z,12.00
2022-08-07T02:05:06.489Z,12.10
2022-08-07T02:08:14.175Z,11.86
2022-08-07T02:11:30.922Z,11.67
2022-08-07T02:14:49.592Z,11.58
2022-08-07T02:17:58.027Z,11.52
2022-08-07T02:21:06.200Z,11.64
2022-08-07T02:24:11.279Z,11.55
2022-08-07T02:27:22.806Z,11.46
2022-08-07T02:30:27.375Z,11.36
2022-08-07T02:33:42.310Z,11.20
2022-08-07T02:36:57.368Z,11.26
2022-08-07T02:40:30.254Z,11.37
2022-08-07T02:43:28.619Z,11.03
2022-08-07T02:46:32.249Z,11.14
2022-08-07T02:49:58.785Z,11.09
2022-08-07T02:53:10.967Z,11.32
2022-08-07T02:56:21.638Z,11.26
2022-08-07T02:59:27.685Z,11.14
2022-08-07T03:02:54.290Z,11.02
2022-08-07T03:05:59.446Z,10.86
2022-08-07T03:09:04.827Z,10.76
2022-08-07T03:12:16.125Z,10.67
2022-08-07T03:15:48.038Z,10.88
2022-08-07T03:18:52.327Z,10.51
2022-08-07T03:21:55.948Z,10.69
2022-08-07T03:25:00.260Z,10.65
2022-08-07T03:28:38.544Z,10.64
2022-08-07T03:31:43.530Z,10.48
2022-08-07T03:35:00.884Z,10.56
2022-08-07T03:38:13.821Z,10.69
2022-08-07T03:41:19.311Z,10.58
2022-08-07T03:44:42.261Z,10.69
2022-08-07T03:47:51.413Z,10.67
2022-08-07T03:50:57.928Z,10.75
2022-08-07T03:54:35.624Z,10.83
2022-08-07T03:58:08.697Z,10.87
2022-08-07T04:01:00.294Z,10.87
2022-08-07T04:04:06.811Z,10.90
2022-08-07T04:07:17.319Z,10.92
2022-08-07T04:10:22.001Z,10.95
2022-08-07T04:13:27.759Z,10.98
2022-08-07T04:16:32.553Z,10.98
2022-08-07T04:19:52.211Z,10.91
2022-08-07T04:23:01.455Z,11.00
2022-08-07T04:26:16.789Z,11.11
2022-08-07T04:29:30.475Z,11.21
2022-08-07T04:32:57.846Z,11.36
2022-08-07T04:36:02.582Z,11.38
2022-08-07T04:39:10.525Z,11.49
2022-08-07T04:42:13.578Z,11.50
2022-08-07T04:45:22.387Z,11.61
2022-08-07T04:48:51.038Z,11.77
2022-08-07T04:52:07.319Z,11.79
2022-08-07T04:58:12.863Z,11.86
2022-08-07T05:02:20.692Z,12.04
2022-08-07T05:05:52.858Z,12.16
2022-08-07T05:09:28.033Z,12.20
2022-08-07T05:12:56.092Z,12.31
2022-08-07T05:16:05.825Z,12.41
2022-08-07T05:19:12.492Z,12.45
2022-08-07T05:22:26.513Z,12.48
2022-08-07T05:26:08.869Z,12.62
2022-08-07T05:28:58.032Z,12.74
2022-08-07T05:32:04.310Z,12.86
2022-08-07T05:35:09.201Z,12.97
2022-08-07T05:38:12.651Z,13.05
2022-08-07T05:42:01.251Z,13.21
2022-08-07T05:45:14.682Z,13.41
2022-08-07T05:48:26.362Z,13.73
2022-08-07T05:51:31.794Z,13.87
2022-08-07T05:54:44.513Z,14.10
2022-08-07T05:57:58.461Z,14.43
2022-08-07T06:01:01.840Z,14.89
2022-08-07T06:04:09.196Z,15.38
2022-08-07T06:07:23.075Z,15.84
2022-08-07T06:10:38.979Z,16.37
2022-08-07T06:14:11.479Z,16.88
2022-08-07T06:17:08.553Z,17.57
2022-08-07T06:20:25.241Z,18.05
2022-08-07T06:24:37.242Z,18.53
2022-08-07T06:26:56.718Z,19.06
2022-08-07T06:30:00.713Z,19.44
2022-08-07T06:33:04.698Z,19.44
2022-08-07T06:36:13.699Z,19.95
2022-08-07T06:40:16.830Z,20.47
2022-08-07T06:42:51.525Z,20.63
2022-08-07T06:46:12.732Z,20.50
2022-08-07T06:49:16.202Z,20.69
2022-08-07T06:52:31.638Z,20.92
2022-08-07T06:56:00.365Z,21.13
2022-08-07T07:00:12.931Z,21.54
2022-08-07T07:02:54.313Z,21.98
2022-08-07T07:06:05.436Z,21.82
2022-08-07T07:09:19.893Z,22.27
2022-08-07T07:12:50.315Z,22.64
2022-08-07T07:16:01.097Z,22.74
2022-08-07T07:19:34.027Z,23.07
2022-08-07T07:22:36.236Z,22.79
2022-08-07T07:26:34.175Z,22.73
2022-08-07T07:29:39.079Z,22.60
2022-08-07T07:32:40.798Z,22.21
2022-08-07T07:36:04.899Z,22.67
2022-08-07T07:39:09.332Z,23.25
2022-08-07T07:42:13.886Z,23.08
2022-08-07T07:46:35.535Z,23.29
2022-08-07T07:48:47.046Z,23.67
2022-08-07T07:51:57.961Z,23.95
2022-08-07T07:55:03.832Z,24.18
2022-08-07T07:58:06.755Z,24.42
2022-08-07T08:02:03.683Z,24.60
2022-08-07T08:04:36.051Z,24.55
2022-08-07T08:07:42.414Z,24.83
2022-08-07T08:11:04.695Z,24.65
2022-08-07T08:14:07.064Z,24.76
2022-08-07T08:17:56.418Z,24.99
2022-08-07T08:20:34.541Z,25.39
2022-08-07T08:23:57.823Z,25.57
2022-08-07T08:27:09.807Z,25.60
2022-08-07T08:30:14.319Z,25.41
2022-08-07T08:33:25.155Z,25.74
2022-08-07T08:36:33.813Z,25.84
2022-08-07T08:39:39.588Z,25.71
2022-08-07T08:43:04.724Z,25.62
2022-08-07T08:46:11.824Z,25.88
2022-08-07T08:49:33.244Z,25.62
2022-08-07T08:52:57.708Z,25.98
2022-08-07T08:56:08.406Z,26.14
2022-08-07T08:59:16.388Z,25.82
2022-08-07T09:02:41.927Z,25.90
2022-08-07T09:06:11.477Z,25.78
2022-08-07T09:09:20.929Z,26.27
2022-08-07T09:12:54.440Z,25.84
2022-08-07T09:16:22.202Z,26.09
2022-08-07T09:19:53.707Z,26.58
2022-08-07T09:24:33.795Z,27.07
2022-08-07T09:27:22.517Z,27.02
2022-08-07T09:30:28.452Z,26.81
2022-08-07T09:33:53.059Z,27.24
2022-08-07T09:37:06.666Z,27.61
2022-08-07T09:40:12.435Z,27.57
2022-08-07T09:44:03.053Z,27.52
2022-08-07T09:47:55.115Z,27.55
2022-08-07T09:51:26.128Z,27.62
2022-08-07T09:54:39.195Z,27.82
2022-08-07T09:58:20.660Z,27.92
2022-08-07T10:01:51.391Z,27.80
2022-08-07T10:05:58.164Z,27.81
2022-08-07T10:08:56.852Z,28.02
2022-08-07T10:12:26.419Z,27.30
2022-08-07T10:15:40.284Z,27.81
2022-08-07T10:19:01.242Z,27.35
2022-08-07T10:22:17.171Z,27.49
2022-08-07T10:25:32.895Z,27.70
2022-08-07T10:29:16.686Z,27.83
2022-08-07T10:32:51.577Z,27.64
2022-08-07T10:36:11.038Z,27.51
2022-08-07T10:39:14.970Z,27.59
2022-08-07T10:42:31.141Z,27.79
2022-08-07T10:45:57.580Z,28.00
2022-08-07T10:49:14.519Z,28.43
2022-08-07T10:52:33.881Z,27.85
2022-08-07T10:55:48.523Z,27.72
2022-08-07T10:59:21.449Z,27.88
2022-08-07T11:02:34.234Z,28.26
2022-08-07T11:06:04.768Z,28.84
2022-08-07T11:10:09.677Z,28.62
2022-08-07T11:12:43.336Z,28.76
2022-08-07T11:16:08.961Z,28.96
2022-08-07T11:19:38.780Z,28.30
2022-08-07T11:23:20.769Z,28.57
2022-08-07T11:26:53.764Z,28.72
2022-08-07T11:30:18.694Z,28.31
2022-08-07T11:33:53.518Z,27.86
2022-08-07T11:37:38.604Z,27.40
2022-08-07T11:41:04.502Z,27.43
2022-08-07T11:44:19.041Z,27.57
2022-08-07T11:48:17.929Z,27.89
2022-08-07T11:51:41.270Z,28.41
2022-08-07T11:55:18.591Z,28.50
2022-08-07T11:58:33.840Z,28.02
2022-08-07T12:01:59.300Z,28.15
2022-08-07T12:05:28.555Z,27.96
2022-08-07T12:08:57.019Z,28.03
2022-08-07T12:12:12.082Z,27.88
2022-08-07T12:15:46.216Z,28.07
2022-08-07T12:19:14.682Z,28.25
2022-08-07T12:22:37.657Z,28.51
2022-08-07T12:26:21.961Z,28.91
2022-08-07T12:29:38.722Z,28.41
2022-08-07T12:32:53.187Z,28.60
2022-08-07T12:35:58.365Z,28.21
2022-08-07T12:39:41.110Z,27.76
2022-08-07T12:42:32.178Z,27.52
2022-08-07T12:45:50.247Z,27.60
2022-08-07T12:48:59.065Z,27.75
2022-08-07T12:52:20.549Z,27.29
2022-08-07T12:56:02.989Z,27.04
2022-08-07T12:59:08.255Z,27.65
2022-08-07T13:03:00.615Z,28.10
2022-08-07T13:06:27.691Z,28.38
2022-08-07T13:10:20.150Z,28.21
2022-08-07T13:13:48.946Z,28.12
2022-08-07T13:17:12.594Z,27.77
2022-08-07T13:20:27.713Z,27.64
2022-08-07T13:24:02.854Z,27.73
2022-08-07T13:27:20.494Z,27.55
2022-08-07T13:30:41.399Z,27.78
2022-08-07T13:34:32.973Z,27.93
2022-08-07T13:37:58.502Z,27.73
2022-08-07T13:41:06.861Z,27.76
2022-08-07T13:44:12.923Z,27.74
2022-08-07T13:47:42.231Z,27.86
2022-08-07T13:50:44.303Z,28.11
2022-08-07T13:54:03.051Z,27.53
2022-08-07T13:57:14.582Z,27.32
2022-08-07T14:00:39.732Z,27.55
2022-08-07T14:04:07.731Z,26.84
2022-08-07T14:07:11.937Z,26.84
2022-08-07T14:10:24.730Z,26.74
2022-08-07T14:13:33.446Z,26.60
2022-08-07T14:16:50.566Z,26.93
2022-08-07T14:20:40.933Z,27.00
2022-08-07T14:24:00.220Z,27.07
2022-08-07T14:27:00.324Z,27.19
2022-08-07T14:30:11.213Z,27.28
2022-08-07T14:33:15.900Z,27.23
2022-08-07T14:36:25.852Z,27.14
2022-08-07T14:40:18.193Z,27.02
2022-08-07T14:43:55.475Z,26.45
2022-08-07T14:46:31.475Z,26.27
2022-08-07T14:53:07.795Z,26.36
2022-08-07T14:56:14.120Z,26.23
2022-08-07T15:00:03.240Z,26.00
2022-08-07T15:02:46.978Z,25.87
2022-08-07T15:06:03.685Z,25.75
2022-08-07T15:09:58.313Z,25.77
2022-08-07T15:12:36.685Z,25.84
2022-08-07T15:15:52.561Z,26.00
2022-08-07T15:18:56.495Z,26.31
2022-08-07T15:22:07.010Z,26.12
2022-08-07T15:25:36.756Z,26.36
2022-08-07T15:32:39.545Z,26.70
2022-08-07T15:36:01.295Z,26.67
2022-08-07T15:39:10.759Z,26.79
2022-08-07T15:42:45.115Z,26.60
2022-08-07T15:45:56.613Z,26.46
2022-08-07T15:49:13.257Z,26.36
2022-08-07T15:52:30.782Z,27.62
2022-08-07T15:55:53.267Z,28.47
2022-08-07T15:59:00.364Z,29.12
2022-08-07T16:02:04.452Z,29.55
2022-08-07T16:05:20.349Z,30.46
2022-08-07T16:08:31.867Z,30.82
2022-08-07T16:11:50.141Z,31.94
2022-08-07T16:15:07.637Z,32.36
2022-08-07T16:18:50.052Z,33.65
2022-08-07T16:22:06.620Z,34.26
2022-08-07T16:25:23.438Z,33.72
2022-08-07T16:30:06.976Z,33.48
2022-08-07T16:32:35.904Z,33.35
2022-08-07T16:35:58.509Z,33.19
2022-08-07T16:39:33.688Z,32.77
2022-08-07T16:43:05.233Z,32.26
2022-08-07T16:47:06.681Z,32.18
2022-08-07T16:50:39.322Z,31.76
2022-08-07T16:54:32.513Z,31.21
2022-08-07T16:58:02.597Z,30.77
2022-08-07T17:01:34.284Z,30.30
2022-08-07T17:04:57.651Z,29.79
2022-08-07T17:08:03.375Z,29.29
2022-08-07T17:11:21.989Z,28.89
2022-08-07T17:14:53.145Z,28.67
2022-08-07T17:18:16.115Z,28.41
2022-08-07T17:21:23.884Z,28.39
2022-08-07T17:25:00.020Z,27.96
2022-08-07T17:28:38.449Z,27.09
2022-08-07T17:32:02.842Z,26.49
2022-08-07T17:35:49.663Z,26.04
2022-08-07T17:39:02.278Z,25.59
2022-08-07T17:42:31.916Z,25.15
2022-08-07T17:45:42.301Z,24.81
2022-08-07T17:49:00.038Z,24.48
2022-08-07T17:52:40.031Z,24.14
2022-08-07T17:56:06.482Z,23.77
2022-08-07T17:59:26.217Z,23.39
2022-08-07T18:02:53.845Z,23.10
2022-08-07T18:06:06.451Z,22.92
2022-08-07T18:09:48.284Z,22.58
2022-08-07T18:12:55.289Z,22.29
2022-08-07T18:16:36.222Z,21.98
2022-08-07T18:21:07.604Z,21.77
2022-08-07T18:23:50.587Z,21.50
2022-08-07T18:27:38.906Z,21.17
2022-08-07T18:31:25.102Z,20.85
2022-08-07T18:35:00.636Z,20.60
2022-08-07T18:38:58.400Z,20.46
2022-08-07T18:42:41.633Z,20.13
2022-08-07T18:46:24.472Z,19.95
2022-08-07T18:50:35.071Z,19.76
2022-08-07T18:53:22.628Z,19.48
2022-08-07T18:56:58.274Z,19.16
2022-08-07T19:00:33.046Z,18.92
2022-08-07T19:04:17.242Z,18.64
2022-08-07T19:07:51.620Z,18.35
2022-08-07T19:11:35.114Z,18.22
2022-08-07T19:14:58.753Z,18.08
2022-08-07T19:18:34.807Z,17.99
2022-08-07T19:21:56.173Z,17.89
2022-08-07T19:26:21.741Z,17.78
2022-08-07T19:30:56.495Z,17.61
2022-08-07T19:32:18.599Z,17.47
2022-08-07T19:35:33.294Z,17.23
2022-08-07T19:38:52.595Z,17.10
2022-08-07T19:42:08.398Z,17.02
2022-08-07T19:46:05.515Z,16.96
2022-08-07T19:49:00.013Z,16.84
2022-08-07T19:52:03.788Z,16.82
2022-08-07T19:55:17.181Z,16.76
2022-08-07T19:58:52.300Z,16.29
2022-08-07T20:02:51.692Z,16.26
2022-08-07T20:06:15.605Z,16.23
2022-08-07T20:10:35.472Z,16.10
2022-08-07T20:12:55.499Z,15.99
2022-08-07T20:15:58.424Z,15.92
2022-08-07T20:19:04.398Z,15.84
2022-08-07T20:22:14.398Z,15.79
2022-08-07T20:25:22.007Z,15.69
2022-08-07T20:28:30.789Z,15.73
2022-08-07T20:31:33.565Z,15.57
2022-08-07T20:34:50.826Z,15.55
2022-08-07T20:37:58.915Z,15.34
2022-08-07T20:45:32.123Z,15.31
2022-08-07T20:48:32.375Z,15.17
2022-08-07T20:51:40.361Z,15.09
2022-08-07T20:54:55.632Z,14.98
2022-08-07T20:58:09.093Z,14.95
2022-08-07T21:01:22.325Z,14.94
2022-08-07T21:04:30.318Z,14.92
2022-08-07T21:07:36.530Z,14.85
2022-08-07T21:10:40.023Z,14.59
2022-08-07T21:14:16.354Z,14.39
2022-08-07T21:18:03.361Z,14.56
2022-08-07T21:20:56.455Z,14.54
2022-08-07T21:24:07.937Z,14.58
2022-08-07T21:27:27.146Z,14.41
2022-08-07T21:32:42.785Z,14.19
2022-08-07T21:35:10.804Z,14.23
2022-08-07T21:38:44.396Z,14.26
2022-08-07T21:42:41.888Z,14.15
2022-08-07T21:46:07.763Z,14.11
2022-08-07T21:49:26.958Z,13.97
2022-08-07T21:52:58.701Z,13.65
2022-08-07T21:56:47.828Z,13.73
2022-08-07T22:00:06.262Z,13.79
2022-08-07T22:03:31.469Z,13.80
2022-08-07T22:06:45.199Z,13.79
2022-08-07T22:09:55.413Z,13.76
2022-08-07T22:13:00.872Z,13.62
2022-08-07T22:16:42.458Z,13.58
2022-08-07T22:19:37.508Z,13.65
2022-08-07T22:22:47.052Z,13.58
2022-08-07T22:26:28.947Z,13.41
2022-08-07T22:29:51.929Z,13.34
2022-08-07T22:33:12.633Z,13.26
2022-08-07T22:36:42.842Z,13.18
2022-08-07T22:39:57.764Z,13.17
2022-08-07T22:43:16.061Z,13.05
2022-08-07T22:47:04.119Z,13.09
2022-08-07T22:50:45.330Z,13.14
2022-08-07T22:54:07.644Z,13.07
2022-08-07T22:57:48.315Z,12.94
2022-08-07T23:01:15.716Z,13.01
2022-08-07T23:04:57.073Z,12.87
2022-08-07T23:08:46.123Z,12.86
2022-08-07T23:12:00.771Z,12.74
2022-08-07T23:16:06.451Z,12.64
2022-08-07T23:19:51.725Z,12.75
2022-08-07T23:22:59.907Z,12.67
2022-08-07T23:26:19.113Z,12.65
2022-08-07T23:30:38.576Z,12.60
2022-08-07T23:34:36.005Z,12.62
2022-08-07T23:37:20.274Z,12.58
2022-08-07T23:40:49.374Z,12.64
2022-08-07T23:44:01.116Z,12.51
2022-08-07T23:47:18.438Z,12.56
2022-08-07T23:50:45.249Z,12.53
2022-08-07T23:54:19.932Z,12.37
2022-08-07T23:57:58.539Z,12.18
